Cartwright, Canada
Current Conditions -  °F | °C
As of 5:00 PM on Thursday 23 Oct 2014 (Local Time) from CWCA Reporting Station
Few Clouds Few Clouds  
Wind Chill: 52°   Ceiling: Unl
Heat Index: 52°   Visibility: 15mi
Dew Point: 28°   Wind: 12mph
Humidity: 41%   Direction: 220°SW
Pressure: 30.04"   Gusts: NA
Location:  53.7°N, 57.03°W
Report Text: CWCA 232000Z 22010KT 15SM FEW200 11/M02 A3004 RMK CI1 TR CI SLP172
Loading
Personal Weather Stations






























Interactive Weather Map
Tropical Storm Tracking
New forecast layout! Learn more

10-Day Weather Forecast

Advertisements
Track Severe Weather on mobile